createdAt,value
2022-11-03T00:04:09.894Z,1.83
2022-11-03T00:09:31.651Z,1.81
2022-11-03T00:14:52.925Z,1.86
2022-11-03T00:20:14.620Z,1.78
2022-11-03T00:25:36.006Z,1.65
2022-11-03T00:30:57.231Z,1.58
2022-11-03T00:36:21.000Z,1.46
2022-11-03T00:41:42.274Z,1.43
2022-11-03T00:47:03.474Z,1.27
2022-11-03T00:52:24.868Z,1.16
2022-11-03T00:57:46.254Z,1.13
2022-11-03T01:03:08.057Z,0.98
2022-11-03T01:08:34.375Z,1.01
2022-11-03T01:13:56.614Z,0.91
2022-11-03T01:19:19.351Z,0.80
2022-11-03T01:24:42.195Z,0.58
2022-11-03T01:30:04.050Z,0.47
2022-11-03T01:35:25.569Z,0.25
2022-11-03T01:40:46.994Z,-0.04
2022-11-03T01:46:11.060Z,-0.06
2022-11-03T01:51:34.909Z,-0.09
2022-11-03T01:56:58.961Z,-0.16
2022-11-03T02:02:20.598Z,-0.06
2022-11-03T02:07:48.893Z,-0.04
2022-11-03T02:13:19.101Z,-0.13
2022-11-03T02:19:02.450Z,-0.35
2022-11-03T02:24:42.173Z,-0.34
2022-11-03T02:30:03.870Z,-0.32
2022-11-03T02:35:38.492Z,-0.24
2022-11-03T02:41:03.303Z,-0.17
2022-11-03T02:46:26.526Z,-0.17
2022-11-03T02:51:48.104Z,-0.06
2022-11-03T02:57:26.089Z,0.03
2022-11-03T03:02:47.718Z,0.18
2022-11-03T03:08:12.156Z,0.28
2022-11-03T03:13:33.883Z,0.32
2022-11-03T03:19:08.120Z,0.41
2022-11-03T03:24:47.912Z,0.41
2022-11-03T03:30:10.007Z,0.32
2022-11-03T03:35:33.519Z,0.20
2022-11-03T03:40:57.842Z,0.19
2022-11-03T03:46:23.361Z,0.32
2022-11-03T03:51:46.220Z,0.36
2022-11-03T03:57:14.123Z,0.26
2022-11-03T04:02:35.588Z,0.22
2022-11-03T04:07:58.644Z,0.18
2022-11-03T04:13:38.283Z,0.29
2022-11-03T04:19:18.363Z,0.19
2022-11-03T04:24:39.808Z,0.04
